createdAt,value
2018-09-19T00:01:34.370Z,9.45
2018-09-19T00:04:01.631Z,9.33
2018-09-19T00:06:28.826Z,9.65
2018-09-19T00:08:56.096Z,9.33
2018-09-19T00:11:23.316Z,9.60
2018-09-19T00:13:50.550Z,9.38
2018-09-19T00:16:17.756Z,9.60
2018-09-19T00:18:45.110Z,9.43
2018-09-19T00:21:12.397Z,8.78
2018-09-19T00:23:39.650Z,9.08
2018-09-19T00:26:06.884Z,9.55
2018-09-19T00:28:34.124Z,9.35
2018-09-19T00:31:01.427Z,9.20
2018-09-19T00:33:28.638Z,8.98
2018-09-19T00:35:55.958Z,9.10
2018-09-19T00:38:23.232Z,9.28
2018-09-19T00:40:50.592Z,9.95
2018-09-19T00:43:17.790Z,9.15
2018-09-19T00:45:45.003Z,9.28
2018-09-19T00:48:12.202Z,9.48
2018-09-19T00:50:39.421Z,9.55
2018-09-19T00:53:06.796Z,9.70
2018-09-19T00:55:34.030Z,9.25
2018-09-19T00:58:01.256Z,10.35
2018-09-19T01:00:28.503Z,10.00
2018-09-19T01:02:55.743Z,9.55
2018-09-19T01:05:23.069Z,8.98
2018-09-19T01:07:50.473Z,9.68
2018-09-19T01:10:17.720Z,9.53
2018-09-19T01:12:44.943Z,9.40
2018-09-19T01:15:12.193Z,8.75
2018-09-19T01:17:39.393Z,8.75
2018-09-19T01:20:06.639Z,8.53
2018-09-19T01:22:34.194Z,9.18
2018-09-19T01:25:01.442Z,8.70
2018-09-19T01:27:28.658Z,8.88
2018-09-19T01:29:55.876Z,8.88
2018-09-19T01:32:23.104Z,9.75
2018-09-19T01:34:50.422Z,9.43
2018-09-19T01:37:17.716Z,8.48
2018-09-19T01:39:45.431Z,8.40
2018-09-19T01:42:12.670Z,8.68
2018-09-19T01:44:39.969Z,8.15
2018-09-19T01:47:07.177Z,8.15
2018-09-19T01:49:34.447Z,8.20
2018-09-19T01:52:01.700Z,7.95
2018-09-19T01:54:28.968Z,8.35
2018-09-19T01:56:56.207Z,8.58
2018-09-19T01:59:23.448Z,8.08
2018-09-19T02:01:50.699Z,8.58
2018-09-19T02:04:17.927Z,7.80
2018-09-19T02:07:04.495Z,8.20
2018-09-19T02:09:31.818Z,7.67
2018-09-19T02:11:59.066Z,7.80
2018-09-19T02:14:26.717Z,7.33
2018-09-19T02:16:53.930Z,7.05
2018-09-19T02:19:21.139Z,7.45
2018-09-19T02:21:48.360Z,7.58
2018-09-19T02:24:15.595Z,6.90
2018-09-19T02:26:42.846Z,7.05
2018-09-19T02:29:10.072Z,7.30
2018-09-19T02:31:37.313Z,6.83
2018-09-19T02:34:04.526Z,6.80
2018-09-19T02:36:38.125Z,6.90
2018-09-19T02:39:08.509Z,6.95
2018-09-19T02:41:35.896Z,6.33
2018-09-19T02:44:03.124Z,6.25
2018-09-19T02:46:30.339Z,6.15
2018-09-19T02:48:57.578Z,5.58
2018-09-19T02:51:24.802Z,5.55
2018-09-19T02:53:52.050Z,5.05
2018-09-19T02:56:19.252Z,5.50
2018-09-19T02:58:47.555Z,5.12
2018-09-19T03:01:14.848Z,5.35
2018-09-19T03:03:53.368Z,5.10
2018-09-19T03:06:21.427Z,5.55
2018-09-19T03:08:48.727Z,4.85
2018-09-19T03:11:15.963Z,4.50
2018-09-19T03:13:43.196Z,4.42
2018-09-19T03:16:10.445Z,4.30
2018-09-19T03:18:37.779Z,4.55
2018-09-19T03:21:05.083Z,4.72
2018-09-19T03:23:33.211Z,4.53
2018-09-19T03:26:05.798Z,4.62
2018-09-19T03:28:33.063Z,5.10
2018-09-19T03:31:02.811Z,5.00
2018-09-19T03:33:31.333Z,4.90
2018-09-19T03:35:58.651Z,5.78
2018-09-19T03:38:25.895Z,5.40
2018-09-19T03:40:53.126Z,5.60
2018-09-19T03:43:20.453Z,5.08
2018-09-19T03:45:47.673Z,5.25
2018-09-19T03:48:14.888Z,5.65
2018-09-19T03:50:42.145Z,5.60
2018-09-19T03:53:09.412Z,6.25
2018-09-19T03:55:36.775Z,5.78
2018-09-19T03:58:04.271Z,5.90
2018-09-19T04:00:31.528Z,5.90
2018-09-19T04:02:58.768Z,6.10
2018-09-19T04:05:25.991Z,5.60
2018-09-19T04:07:53.223Z,5.45
2018-09-19T04:10:20.555Z,5.60
2018-09-19T04:12:47.776Z,5.67
2018-09-19T04:15:15.219Z,5.80
2018-09-19T04:17:42.447Z,5.72
2018-09-19T04:20:09.720Z,6.17
2018-09-19T04:22:36.923Z,5.78
2018-09-19T04:25:04.180Z,5.10
2018-09-19T04:27:31.384Z,5.22
2018-09-19T04:29:58.607Z,5.55
2018-09-19T04:32:25.938Z,5.40
2018-09-19T04:34:53.098Z,4.42
2018-09-19T04:37:20.289Z,4.80
2018-09-19T04:39:47.491Z,4.30
2018-09-19T04:42:14.708Z,4.35
2018-09-19T04:44:41.899Z,4.53
2018-09-19T04:47:09.141Z,4.70
2018-09-19T04:49:36.347Z,4.60
2018-09-19T04:52:03.602Z,3.75
2018-09-19T04:54:30.828Z,4.67
2018-09-19T04:56:58.014Z,4.78
2018-09-19T04:59:25.251Z,5.37
2018-09-19T05:01:52.540Z,4.78
2018-09-19T05:04:19.754Z,4.60
2018-09-19T05:06:46.943Z,4.05
2018-09-19T05:09:14.160Z,4.95
2018-09-19T05:11:41.381Z,4.62
2018-09-19T05:14:08.587Z,4.67
2018-09-19T05:16:35.800Z,4.58
2018-09-19T05:19:03.044Z,4.60
2018-09-19T05:21:30.281Z,4.37
2018-09-19T05:23:57.810Z,4.62
2018-09-19T05:26:25.014Z,5.08
2018-09-19T05:28:52.218Z,4.72
2018-09-19T05:31:19.410Z,4.72
2018-09-19T05:33:46.628Z,4.95
2018-09-19T05:36:13.855Z,4.28
2018-09-19T05:38:41.078Z,4.90
2018-09-19T05:41:08.551Z,4.75
2018-09-19T05:43:35.777Z,4.83
2018-09-19T05:46:02.996Z,4.60
2018-09-19T05:48:30.192Z,4.28
2018-09-19T05:50:57.400Z,4.50
2018-09-19T05:53:24.580Z,4.62
2018-09-19T05:55:51.783Z,4.67
2018-09-19T05:58:18.955Z,5.05
2018-09-19T06:00:46.219Z,4.75
2018-09-19T06:03:13.442Z,4.30
2018-09-19T06:05:40.687Z,4.30
2018-09-19T06:08:07.890Z,4.30
2018-09-19T06:10:35.120Z,4.20
2018-09-19T06:13:02.393Z,4.55
2018-09-19T06:15:29.523Z,4.45
2018-09-19T06:17:56.729Z,4.33
2018-09-19T06:20:23.939Z,3.72
2018-09-19T06:22:51.177Z,3.92
2018-09-19T06:25:18.391Z,4.00
2018-09-19T06:27:45.773Z,4.20
2018-09-19T06:30:13.035Z,4.35
2018-09-19T06:32:40.250Z,4.45
2018-09-19T06:35:07.454Z,4.60
2018-09-19T06:37:34.687Z,4.15
2018-09-19T06:40:01.988Z,4.25
2018-09-19T06:42:29.158Z,4.47
2018-09-19T06:44:56.394Z,4.45
2018-09-19T06:47:23.625Z,3.98
2018-09-19T06:49:50.855Z,4.10
2018-09-19T06:52:18.181Z,4.05
2018-09-19T06:54:45.376Z,4.08
2018-09-19T06:57:12.591Z,4.35
2018-09-19T06:59:39.843Z,3.72
2018-09-19T07:02:07.039Z,3.37
2018-09-19T07:04:34.214Z,3.70
2018-09-19T07:07:01.403Z,3.87
2018-09-19T07:09:28.618Z,3.40
2018-09-19T07:11:55.846Z,3.42
2018-09-19T07:14:23.051Z,3.40
2018-09-19T07:16:50.292Z,3.60
2018-09-19T07:19:17.480Z,3.77
2018-09-19T07:21:44.699Z,3.72
2018-09-19T07:24:11.922Z,3.90
2018-09-19T07:26:39.120Z,3.37
2018-09-19T07:29:06.330Z,3.40
2018-09-19T07:31:33.567Z,3.42
2018-09-19T07:34:00.806Z,3.15
2018-09-19T07:36:28.018Z,3.40
2018-09-19T07:38:55.206Z,3.50
2018-09-19T07:41:22.418Z,3.50
2018-09-19T07:43:49.606Z,3.83
2018-09-19T07:46:16.892Z,3.65
2018-09-19T07:48:44.082Z,3.58
2018-09-19T07:51:11.286Z,4.05
2018-09-19T07:53:38.486Z,3.65
2018-09-19T07:56:05.773Z,4.05
2018-09-19T07:58:33.071Z,3.87
2018-09-19T08:01:00.369Z,4.25
2018-09-19T08:03:27.559Z,3.75
2018-09-19T08:05:54.779Z,4.10
2018-09-19T08:08:22.222Z,4.20
2018-09-19T08:10:49.566Z,4.00
2018-09-19T08:13:16.808Z,3.70
2018-09-19T08:15:44.180Z,3.70
2018-09-19T08:18:11.404Z,3.62
2018-09-19T08:20:38.695Z,3.72
2018-09-19T08:23:06.461Z,3.47
2018-09-19T08:25:33.648Z,3.77
2018-09-19T08:28:01.023Z,3.27
2018-09-19T08:30:28.224Z,3.33
2018-09-19T08:32:55.475Z,3.17
2018-09-19T08:35:22.708Z,3.70
2018-09-19T08:37:49.883Z,3.05
2018-09-19T08:40:17.110Z,3.50
2018-09-19T08:42:44.326Z,3.52
2018-09-19T08:45:11.555Z,3.60
2018-09-19T08:47:38.742Z,3.67
2018-09-19T08:50:06.000Z,3.47
2018-09-19T08:52:33.178Z,3.70
2018-09-19T08:55:00.434Z,3.98
2018-09-19T08:57:27.631Z,4.40
2018-09-19T08:59:54.847Z,4.28
2018-09-19T09:02:22.058Z,3.92
2018-09-19T09:04:49.282Z,4.03
2018-09-19T09:07:16.479Z,3.70
2018-09-19T09:09:43.779Z,4.20
2018-09-19T09:12:11.007Z,4.15
2018-09-19T09:14:38.195Z,3.70
2018-09-19T09:17:05.425Z,3.90
2018-09-19T09:19:32.619Z,3.65
2018-09-19T09:21:59.945Z,3.72
2018-09-19T09:24:27.221Z,3.20
2018-09-19T09:26:54.604Z,3.15
2018-09-19T09:29:21.728Z,3.20
2018-09-19T09:31:48.930Z,3.10
2018-09-19T09:34:16.320Z,3.05
2018-09-19T09:36:43.639Z,2.90
2018-09-19T09:39:10.829Z,3.10
2018-09-19T09:41:38.127Z,2.80
2018-09-19T09:44:05.477Z,3.20
2018-09-19T09:46:32.675Z,2.90
2018-09-19T09:48:59.898Z,3.30
2018-09-19T09:51:27.131Z,3.17
2018-09-19T09:53:54.403Z,3.47
2018-09-19T09:56:21.647Z,3.27
2018-09-19T09:58:48.866Z,3.30
2018-09-19T10:01:16.143Z,3.60
2018-09-19T10:03:43.359Z,3.60
2018-09-19T10:06:10.578Z,3.70
2018-09-19T10:08:37.836Z,3.72
2018-09-19T10:11:05.497Z,4.20
2018-09-19T10:13:32.745Z,3.90
2018-09-19T10:15:59.915Z,4.25
2018-09-19T10:18:27.168Z,3.90
2018-09-19T10:20:54.417Z,5.15
2018-09-19T10:23:21.646Z,4.97
2018-09-19T10:25:48.849Z,6.03
2018-09-19T10:28:16.128Z,6.00
2018-09-19T10:30:43.389Z,5.67
2018-09-19T10:33:10.675Z,5.90
2018-09-19T10:35:37.909Z,6.12
2018-09-19T10:38:05.142Z,5.42
2018-09-19T10:40:32.351Z,5.75
2018-09-19T10:42:59.575Z,5.28
2018-09-19T10:45:26.862Z,6.83
2018-09-19T10:47:54.078Z,7.25
2018-09-19T10:50:21.342Z,7.97
2018-09-19T10:52:48.593Z,7.22
2018-09-19T10:55:15.870Z,7.72
2018-09-19T10:57:43.121Z,6.35
2018-09-19T11:00:10.352Z,7.35
2018-09-19T11:02:37.914Z,6.72
2018-09-19T11:05:05.167Z,5.20
2018-09-19T11:07:32.383Z,5.28
2018-09-19T11:09:59.566Z,4.25
2018-09-19T11:12:26.788Z,4.10
2018-09-19T11:14:53.966Z,3.87
2018-09-19T11:17:21.178Z,3.87
2018-09-19T11:19:48.415Z,3.60
2018-09-19T11:22:15.657Z,3.27
2018-09-19T11:24:42.895Z,3.47
2018-09-19T11:27:10.124Z,3.70
2018-09-19T11:29:37.346Z,3.47
2018-09-19T11:32:04.547Z,3.70
2018-09-19T11:34:33.950Z,3.58
2018-09-19T11:37:01.168Z,3.58
2018-09-19T11:39:28.359Z,3.85
2018-09-19T11:41:55.650Z,3.60
2018-09-19T11:44:22.847Z,3.22
2018-09-19T11:46:50.072Z,3.27
2018-09-19T11:49:17.318Z,3.55
2018-09-19T11:51:44.504Z,3.15
2018-09-19T11:54:11.723Z,3.20
2018-09-19T11:56:39.056Z,3.20
2018-09-19T11:59:06.355Z,2.95
2018-09-19T12:01:33.631Z,2.75
2018-09-19T12:04:00.968Z,2.80
2018-09-19T12:06:28.213Z,2.47
2018-09-19T12:08:55.507Z,2.30
2018-09-19T12:11:22.752Z,2.33
2018-09-19T12:13:49.996Z,2.58
2018-09-19T12:16:17.298Z,2.10
2018-09-19T12:18:44.564Z,2.00
2018-09-19T12:21:11.816Z,1.90
2018-09-19T12:23:39.058Z,1.98
2018-09-19T12:26:06.349Z,2.10
2018-09-19T12:28:33.649Z,1.92
2018-09-19T12:31:00.951Z,1.90
2018-09-19T12:33:28.325Z,1.92
2018-09-19T12:35:55.566Z,1.92
2018-09-19T12:38:22.790Z,2.02
2018-09-19T12:40:51.475Z,1.90
2018-09-19T12:43:18.674Z,2.20
2018-09-19T12:45:45.928Z,2.33
2018-09-19T12:48:13.224Z,1.72
2018-09-19T12:50:40.846Z,2.00
2018-09-19T12:53:08.113Z,1.80
2018-09-19T12:55:35.359Z,2.00
2018-09-19T12:58:02.601Z,2.00
2018-09-19T13:00:29.871Z,1.98
2018-09-19T13:02:57.120Z,1.90
2018-09-19T13:05:24.335Z,1.98
2018-09-19T13:07:51.599Z,2.20
2018-09-19T13:10:18.845Z,2.40
2018-09-19T13:12:46.068Z,2.47
2018-09-19T13:15:13.341Z,2.25
2018-09-19T13:17:40.713Z,2.30
2018-09-19T13:20:07.986Z,2.30
2018-09-19T13:22:35.267Z,2.00
2018-09-19T13:25:02.686Z,2.20
2018-09-19T13:27:29.994Z,2.00
2018-09-19T13:29:57.090Z,2.08
2018-09-19T13:32:24.306Z,2.10
2018-09-19T13:34:52.606Z,2.30
2018-09-19T13:37:19.827Z,2.27
2018-09-19T13:39:47.086Z,2.12
2018-09-19T13:42:14.324Z,2.50
2018-09-19T13:44:41.527Z,2.17
2018-09-19T13:47:08.755Z,2.50
2018-09-19T13:50:51.914Z,2.70
2018-09-19T13:53:22.202Z,2.37
2018-09-19T13:55:49.784Z,2.20
2018-09-19T13:58:17.034Z,2.22
2018-09-19T14:00:44.275Z,2.22
2018-09-19T14:03:11.514Z,2.20
2018-09-19T14:05:38.750Z,1.92
2018-09-19T14:08:06.002Z,2.02
2018-09-19T14:10:33.231Z,2.30
2018-09-19T14:13:00.438Z,2.47
2018-09-19T14:15:27.683Z,2.70
2018-09-19T14:17:54.938Z,2.40
2018-09-19T14:20:22.163Z,2.10
2018-09-19T14:22:51.430Z,2.22
2018-09-19T14:25:18.652Z,2.25
2018-09-19T14:27:45.891Z,2.50
2018-09-19T14:30:13.136Z,2.40
2018-09-19T14:32:40.437Z,2.40
2018-09-19T14:35:07.651Z,2.40
2018-09-19T14:37:34.852Z,2.05
2018-09-19T14:40:02.098Z,2.20
2018-09-19T14:42:29.519Z,2.30
2018-09-19T14:44:56.792Z,2.30
2018-09-19T14:47:24.043Z,2.70
2018-09-19T14:49:51.265Z,2.60
2018-09-19T14:52:18.455Z,2.47
2018-09-19T14:54:45.740Z,2.58
2018-09-19T14:57:12.959Z,2.77
2018-09-19T14:59:40.166Z,2.90
2018-09-19T15:02:07.439Z,2.60
2018-09-19T15:04:34.638Z,2.62
2018-09-19T15:07:01.838Z,2.70
2018-09-19T15:09:29.031Z,2.58
2018-09-19T15:11:56.263Z,2.50
2018-09-19T15:14:23.459Z,2.42
2018-09-19T15:16:50.664Z,2.80
2018-09-19T15:19:17.932Z,2.65
2018-09-19T15:21:45.150Z,2.60
2018-09-19T15:24:12.431Z,2.75
2018-09-19T15:26:39.590Z,2.52
2018-09-19T15:29:06.804Z,2.62
2018-09-19T15:31:34.035Z,2.75
2018-09-19T15:34:01.255Z,2.80
2018-09-19T15:36:28.465Z,2.70
2018-09-19T15:38:55.706Z,2.87
2018-09-19T15:41:22.921Z,2.80
2018-09-19T15:43:50.150Z,2.55
2018-09-19T15:46:17.346Z,2.98
2018-09-19T15:48:44.624Z,2.85
2018-09-19T15:51:11.867Z,2.60
2018-09-19T15:53:39.067Z,2.90
2018-09-19T15:56:06.279Z,3.25
2018-09-19T15:58:33.475Z,3.50
2018-09-19T16:01:00.684Z,2.85
2018-09-19T16:03:27.926Z,3.02
2018-09-19T16:05:55.209Z,3.05
2018-09-19T16:08:38.319Z,3.22
2018-09-19T16:11:06.585Z,2.95
2018-09-19T16:13:34.420Z,3.27
2018-09-19T16:16:01.715Z,2.90
2018-09-19T16:18:28.914Z,3.08
2018-09-19T16:20:56.195Z,3.17
2018-09-19T16:23:23.342Z,3.40
2018-09-19T16:25:50.567Z,3.40
2018-09-19T16:28:17.770Z,3.20
2018-09-19T16:30:44.979Z,4.12
2018-09-19T16:33:12.210Z,3.37
2018-09-19T16:35:39.700Z,3.62
2018-09-19T16:38:06.960Z,3.70
2018-09-19T16:40:34.269Z,3.67
2018-09-19T16:43:01.636Z,3.65
2018-09-19T16:45:28.966Z,3.70
2018-09-19T16:47:56.259Z,3.40
2018-09-19T16:50:23.580Z,3.50
2018-09-19T16:52:50.826Z,3.17
2018-09-19T16:55:18.130Z,3.75
2018-09-19T16:57:45.459Z,3.50
2018-09-19T17:00:14.244Z,3.70
2018-09-19T17:02:41.480Z,3.70
2018-09-19T17:05:09.044Z,3.80
2018-09-19T17:07:36.302Z,3.75
2018-09-19T17:10:03.746Z,4.00
2018-09-19T17:12:30.971Z,4.45
2018-09-19T17:14:58.167Z,3.77
2018-09-19T17:17:25.408Z,3.80
2018-09-19T17:19:52.759Z,3.55
2018-09-19T17:22:20.990Z,3.90
2018-09-19T17:24:48.197Z,4.28
2018-09-19T17:27:15.492Z,3.87
2018-09-19T17:29:42.696Z,3.65
2018-09-19T17:32:09.960Z,5.03
2018-09-19T17:34:37.221Z,4.20
2018-09-19T17:37:04.451Z,4.10
2018-09-19T17:39:31.683Z,4.22
2018-09-19T17:41:58.940Z,3.87
2018-09-19T17:44:26.228Z,3.90
2018-09-19T17:46:53.442Z,4.25
2018-09-19T17:49:20.767Z,3.60
2018-09-19T17:51:48.051Z,4.08
2018-09-19T17:54:15.303Z,4.03
2018-09-19T17:56:42.575Z,3.95
2018-09-19T17:59:09.839Z,4.30
2018-09-19T18:01:37.085Z,4.15
2018-09-19T18:04:04.381Z,3.92
2018-09-19T18:06:31.635Z,4.03
2018-09-19T18:08:58.931Z,4.30
2018-09-19T18:11:26.170Z,4.12
2018-09-19T18:13:53.415Z,4.30
2018-09-19T18:16:21.327Z,4.47
2018-09-19T18:18:48.636Z,4.35
2018-09-19T18:21:15.872Z,4.75
2018-09-19T18:23:43.222Z,4.00
2018-09-19T18:26:11.327Z,4.00
2018-09-19T18:28:38.571Z,4.33
2018-09-19T18:31:05.903Z,4.10
2018-09-19T18:33:33.114Z,4.47
2018-09-19T18:36:00.315Z,4.10
2018-09-19T18:38:27.683Z,4.00
2018-09-19T18:40:55.395Z,3.83
2018-09-19T18:43:22.587Z,4.03
2018-09-19T18:45:52.925Z,4.45
2018-09-19T18:48:20.179Z,4.65
2018-09-19T18:50:47.440Z,4.20
2018-09-19T18:53:15.660Z,4.30
2018-09-19T18:55:42.873Z,4.78
2018-09-19T18:58:12.407Z,4.90
2018-09-19T19:00:44.678Z,4.65
2018-09-19T19:03:13.266Z,4.50
2018-09-19T19:05:40.895Z,4.47
2018-09-19T19:08:08.173Z,4.40
2018-09-19T19:10:35.436Z,4.50
2018-09-19T19:13:02.682Z,4.33
2018-09-19T19:15:29.933Z,4.67
2018-09-19T19:17:57.182Z,5.03
2018-09-19T19:20:24.712Z,4.75
2018-09-19T19:22:51.971Z,5.17
2018-09-19T19:25:19.261Z,5.12
2018-09-19T19:27:46.470Z,5.25
2018-09-19T19:30:13.799Z,5.22
2018-09-19T19:32:41.104Z,5.35
2018-09-19T19:35:08.442Z,5.37
2018-09-19T19:37:35.701Z,5.00
2018-09-19T19:40:03.061Z,5.12
2018-09-19T19:42:30.363Z,5.08
2018-09-19T19:44:57.679Z,5.67
2018-09-19T19:47:24.954Z,4.90
2018-09-19T19:49:52.997Z,5.70
2018-09-19T19:52:20.246Z,5.30
2018-09-19T19:54:47.671Z,5.78
2018-09-19T19:57:14.897Z,5.40
2018-09-19T19:59:42.127Z,5.20
2018-09-19T20:02:09.332Z,5.62
2018-09-19T20:04:36.536Z,5.40
2018-09-19T20:07:03.750Z,5.70
2018-09-19T20:09:31.081Z,5.58
2018-09-19T20:12:03.067Z,5.25
2018-09-19T20:14:31.591Z,6.00
2018-09-19T20:16:59.732Z,5.80
2018-09-19T20:19:29.491Z,5.08
2018-09-19T20:21:56.863Z,5.80
2018-09-19T20:24:24.215Z,5.62
2018-09-19T20:26:51.427Z,5.40
2018-09-19T20:29:19.203Z,5.58
2018-09-19T20:31:46.439Z,5.50
2018-09-19T20:34:13.704Z,5.28
2018-09-19T20:36:40.926Z,5.50
2018-09-19T20:39:09.059Z,5.30
2018-09-19T20:41:36.285Z,6.00
2018-09-19T20:44:03.542Z,5.47
2018-09-19T20:46:30.799Z,5.53
2018-09-19T20:48:58.301Z,5.37
2018-09-19T20:51:25.554Z,5.67
2018-09-19T20:53:53.199Z,6.37
2018-09-19T20:56:20.404Z,5.83
2018-09-19T20:58:54.592Z,6.20
2018-09-19T21:04:16.967Z,5.85
2018-09-19T21:07:17.370Z,5.92
2018-09-19T21:09:52.570Z,6.08
2018-09-19T21:12:41.250Z,6.87
2018-09-19T21:15:09.341Z,6.17
2018-09-19T21:17:42.950Z,6.42
2018-09-19T21:20:41.309Z,6.20
2018-09-19T21:26:06.424Z,6.30
2018-09-19T21:28:33.731Z,5.95
2018-09-19T21:31:00.838Z,6.33
2018-09-19T21:33:28.036Z,5.90
2018-09-19T21:35:55.351Z,6.42
2018-09-19T21:38:22.551Z,6.58
2018-09-19T21:40:50.086Z,6.80
2018-09-19T21:43:17.340Z,6.25
2018-09-19T21:45:44.662Z,6.22
2018-09-19T21:48:12.037Z,6.58
2018-09-19T21:50:43.285Z,6.12
2018-09-19T21:53:12.462Z,6.28
2018-09-19T21:55:39.743Z,6.42
2018-09-19T21:58:17.224Z,6.15
2018-09-19T22:00:49.257Z,6.00
2018-09-19T22:03:16.587Z,6.33
2018-09-19T22:05:43.816Z,6.15
2018-09-19T22:08:11.034Z,6.10
2018-09-19T22:10:38.236Z,6.35
2018-09-19T22:13:05.488Z,6.35
2018-09-19T22:15:32.699Z,6.75
2018-09-19T22:17:59.932Z,7.15
2018-09-19T22:20:27.119Z,6.42
2018-09-19T22:22:54.336Z,6.50
2018-09-19T22:25:21.523Z,7.28
2018-09-19T22:30:33.391Z,6.60
2018-09-19T22:33:00.719Z,7.30
2018-09-19T22:35:27.909Z,6.70
2018-09-19T22:37:55.094Z,7.05
2018-09-19T22:40:22.313Z,7.10
2018-09-19T22:42:49.565Z,6.30
2018-09-19T22:45:17.015Z,6.33
2018-09-19T22:47:44.214Z,6.58
2018-09-19T22:50:11.455Z,6.67
2018-09-19T22:52:38.669Z,6.60
2018-09-19T22:55:05.904Z,6.72
2018-09-19T22:57:33.102Z,6.90
2018-09-19T23:00:00.310Z,6.62
2018-09-19T23:02:27.542Z,7.22
2018-09-19T23:04:54.803Z,7.35
2018-09-19T23:07:22.019Z,7.05
2018-09-19T23:09:49.223Z,6.80
2018-09-19T23:12:17.467Z,7.35
2018-09-19T23:14:44.706Z,7.47
2018-09-19T23:17:12.104Z,7.50
2018-09-19T23:19:39.327Z,7.10
2018-09-19T23:22:06.535Z,6.90
2018-09-19T23:24:33.763Z,6.85
2018-09-19T23:27:00.982Z,7.05
2018-09-19T23:29:28.215Z,6.83
2018-09-19T23:31:55.438Z,7.33
2018-09-19T23:34:22.665Z,7.60
2018-09-19T23:36:49.905Z,7.15
2018-09-19T23:39:17.126Z,6.92
2018-09-19T23:41:44.353Z,7.22
2018-09-19T23:44:11.656Z,7.37
2018-09-19T23:46:38.878Z,7.35
2018-09-19T23:49:06.135Z,7.35
2018-09-19T23:51:33.416Z,7.03
2018-09-19T23:54:00.655Z,7.35
2018-09-19T23:56:27.883Z,7.35
2018-09-19T23:58:55.126Z,7.10
